Time;durP1;ratioP1;P1;durP2;ratioP2;P2;SDS_P1;SDS_P2;PMS_P1;PMS_P2;Temp;Humidity;BMP_temperature;BMP_pressure;BME280_temperature;BME280_humidity;BME280_pressure;Samples;Min_cycle;Max_cycle;Signal;HPM_P1;HPM_P2
2023/12/13 00:01:39;;;;;;;3.10;0.93;;;8.20;99.90;;;;;;4995473;28;20033;-74
2023/12/13 00:04:04;;;;;;;5.53;1.38;;;9.50;99.90;;;;;;4996526;28;20030;-74
2023/12/13 00:06:30;;;;;;;5.78;1.98;;;8.20;99.90;;;;;;4997011;28;20050;-74
2023/12/13 00:08:56;;;;;;;5.13;2.17;;;8.20;99.90;;;;;;4996106;28;20036;-74
2023/12/13 00:11:22;;;;;;;7.43;1.77;;;8.20;99.90;;;;;;4996489;28;20031;-74
2023/12/13 00:13:47;;;;;;;6.40;2.00;;;8.30;99.90;;;;;;4996589;28;20129;-74
2023/12/13 00:16:13;;;;;;;8.40;2.10;;;8.30;99.90;;;;;;4996308;28;20118;-74
2023/12/13 00:18:39;;;;;;;7.35;1.92;;;8.30;99.90;;;;;;4995440;28;20019;-74
2023/12/13 00:21:05;;;;;;;3.60;1.85;;;8.40;99.90;;;;;;4996139;28;20101;-75
2023/12/13 00:23:31;;;;;;;5.85;1.80;;;8.30;99.90;;;;;;4996069;28;20033;-74
2023/12/13 00:25:56;;;;;;;6.43;1.90;;;8.40;99.90;;;;;;4996554;28;20050;-74
2023/12/13 00:28:22;;;;;;;4.45;1.90;;;8.30;99.90;;;;;;4996471;28;20033;-74
2023/12/13 00:30:47;;;;;;;5.90;2.15;;;8.40;99.90;;;;;;4996473;28;20026;-74
2023/12/13 00:33:13;;;;;;;5.05;2.22;;;8.30;99.90;;;;;;4996373;28;20034;-74
2023/12/13 00:35:38;;;;;;;8.27;2.58;;;8.30;99.90;;;;;;4996225;28;20026;-74
2023/12/13 00:38:04;;;;;;;4.10;2.35;;;8.30;99.90;;;;;;4996217;28;20161;-74
2023/12/13 00:40:30;;;;;;;6.53;2.70;;;8.30;99.90;;;;;;4994527;28;20018;-74
2023/12/13 00:42:55;;;;;;;9.00;2.78;;;8.30;99.90;;;;;;4996470;28;20504;-74
2023/12/13 00:45:22;;;;;;;6.90;2.50;;;8.30;99.90;;;;;;4995884;28;20104;-74
2023/12/13 00:47:48;;;;;;;7.68;2.47;;;8.30;99.90;;;;;;4994387;28;20030;-74
2023/12/13 00:50:13;;;;;;;5.78;2.63;;;8.30;99.90;;;;;;4995723;28;20033;-74
2023/12/13 00:52:39;;;;;;;10.25;3.20;;;8.30;99.90;;;;;;4994730;28;20085;-74
2023/12/13 00:55:05;;;;;;;4.72;2.45;;;8.30;99.90;;;;;;4994478;28;20105;-74
2023/12/13 00:57:31;;;;;;;5.47;2.55;;;8.30;99.90;;;;;;4995509;28;20049;-74
2023/12/13 00:59:57;;;;;;;5.22;2.05;;;8.40;99.90;;;;;;4995844;28;20537;-74
2023/12/13 01:02:22;;;;;;;7.10;2.30;;;8.30;99.90;;;;;;4996110;28;20030;-74
2023/12/13 01:04:48;;;;;;;4.57;1.63;;;8.30;99.90;;;;;;4994401;28;20026;-74
2023/12/13 01:07:13;;;;;;;4.05;1.83;;;8.40;99.90;;;;;;4996184;28;20031;-74
2023/12/13 01:09:39;;;;;;;5.10;2.47;;;8.40;99.90;;;;;;4996012;28;20030;-74
2023/12/13 01:12:06;;;;;;;4.25;1.50;;;8.30;99.90;;;;;;4995535;28;20030;-74
2023/12/13 01:14:32;;;;;;;6.82;2.05;;;8.40;99.90;;;;;;4995979;28;20030;-74
2023/12/13 01:16:58;;;;;;;8.50;1.90;;;8.40;99.90;;;;;;4994255;28;20069;-74
2023/12/13 01:19:24;;;;;;;7.32;1.77;;;8.40;99.90;;;;;;4995747;28;20077;-74
2023/12/13 01:21:50;;;;;;;9.25;1.40;;;8.40;99.90;;;;;;4995700;28;20394;-74
2023/12/13 01:24:16;;;;;;;4.95;2.28;;;8.40;99.90;;;;;;4996409;28;20405;-74
2023/12/13 01:26:41;;;;;;;5.53;1.65;;;8.50;99.90;;;;;;4994000;28;20026;-74
2023/12/13 01:29:07;;;;;;;4.65;1.35;;;8.50;99.90;;;;;;4993966;28;20037;-75
2023/12/13 01:31:34;;;;;;;9.30;2.33;;;8.40;99.90;;;;;;5010332;28;20029;-74
2023/12/13 01:34:00;;;;;;;6.95;2.85;;;8.40;99.90;;;;;;4994699;28;20073;-74
2023/12/13 01:36:25;;;;;;;8.23;3.08;;;8.50;99.90;;;;;;4993665;28;20026;-74
2023/12/13 01:38:51;;;;;;;8.10;3.83;;;8.50;99.90;;;;;;4995351;28;20177;-74
2023/12/13 01:41:16;;;;;;;4.97;2.55;;;8.40;99.90;;;;;;4994948;28;20018;-74
2023/12/13 01:43:42;;;;;;;5.88;2.00;;;8.40;99.90;;;;;;4994992;28;20022;-74
2023/12/13 01:46:08;;;;;;;8.77;3.03;;;8.40;99.90;;;;;;4995584;28;20053;-74
2023/12/13 01:48:34;;;;;;;4.68;2.30;;;8.50;99.90;;;;;;4993742;28;20030;-74
2023/12/13 01:51:00;;;;;;;5.47;2.15;;;8.50;99.90;;;;;;4994855;28;20022;-74
2023/12/13 01:53:26;;;;;;;7.20;2.88;;;8.40;99.90;;;;;;4995351;28;20033;-74
2023/12/13 01:55:54;;;;;;;5.68;2.05;;;8.40;99.90;;;;;;4995074;28;20030;-74
2023/12/13 01:58:20;;;;;;;4.88;2.05;;;8.40;99.90;;;;;;4995547;28;20466;-74
2023/12/13 02:00:46;;;;;;;7.13;2.58;;;8.40;99.90;;;;;;4993708;28;20080;-74
2023/12/13 02:03:12;;;;;;;7.95;2.40;;;8.40;99.90;;;;;;4994834;28;20034;-74
2023/12/13 02:05:39;;;;;;;4.68;1.60;;;8.40;99.90;;;;;;4994777;28;20018;-74
2023/12/13 02:08:06;;;;;;;7.95;2.17;;;8.40;99.90;;;;;;4994383;28;20026;-74
2023/12/13 02:10:31;;;;;;;5.13;2.20;;;8.40;99.90;;;;;;4994815;28;20018;-74
2023/12/13 02:12:57;;;;;;;5.60;2.03;;;8.40;99.90;;;;;;4995224;28;20105;-74
2023/12/13 02:15:24;;;;;;;5.95;2.22;;;8.40;99.90;;;;;;4995336;28;20054;-74
2023/12/13 02:17:59;;;;;;;6.45;2.30;;;8.40;99.90;;;;;;4994676;28;20022;-74
2023/12/13 02:20:28;;;;;;;7.13;2.92;;;8.40;99.90;;;;;;4994823;28;20052;-74
2023/12/13 02:22:53;;;;;;;11.45;3.50;;;8.40;99.90;;;;;;4993633;28;20061;-74
2023/12/13 02:25:40;;;;;;;4.80;2.35;;;8.40;99.90;;;;;;4994864;28;20030;-74
2023/12/13 02:28:07;;;;;;;6.32;2.03;;;8.40;99.90;;;;;;4994594;28;20033;-74
2023/12/13 02:30:33;;;;;;;3.50;2.05;;;8.40;99.90;;;;;;4998389;28;20030;-74
2023/12/13 02:32:58;;;;;;;7.47;1.92;;;8.40;99.90;;;;;;4998509;28;20367;-74
2023/12/13 02:35:24;;;;;;;7.63;2.08;;;8.40;99.90;;;;;;4998545;28;20026;-74
2023/12/13 02:37:50;;;;;;;6.47;2.10;;;8.40;99.90;;;;;;4998398;28;20080;-74
2023/12/13 02:40:21;;;;;;;6.93;2.03;;;8.40;99.90;;;;;;4997324;28;20027;-74
2023/12/13 02:42:46;;;;;;;5.32;2.00;;;8.40;99.90;;;;;;4997229;28;20081;-74
2023/12/13 02:45:13;;;;;;;6.63;2.25;;;8.40;99.90;;;;;;4998350;28;20054;-74
2023/12/13 02:47:42;;;;;;;7.47;2.40;;;8.30;99.90;;;;;;4998495;28;20038;-74
2023/12/13 02:50:09;;;;;;;4.68;1.70;;;8.40;99.90;;;;;;4998346;28;20018;-74
2023/12/13 02:52:35;;;;;;;5.78;2.10;;;8.40;99.90;;;;;;4998018;28;20034;-74
2023/12/13 02:55:01;;;;;;;5.15;2.00;;;8.30;99.90;;;;;;4998098;28;20023;-74
2023/12/13 02:57:26;;;;;;;7.00;2.10;;;8.30;99.90;;;;;;5012897;28;20022;-73
2023/12/13 02:59:52;;;;;;;5.32;2.03;;;8.30;99.90;;;;;;4996441;28;20129;-74
2023/12/13 03:02:17;;;;;;;6.82;2.55;;;8.30;99.90;;;;;;4997923;28;20030;-74
2023/12/13 03:04:43;;;;;;;6.72;2.85;;;8.30;99.90;;;;;;4998244;28;20026;-74
2023/12/13 03:07:08;;;;;;;9.75;2.35;;;8.30;99.90;;;;;;4998023;28;20089;-74
2023/12/13 03:09:34;;;;;;;9.23;2.60;;;8.30;99.90;;;;;;4996432;28;20180;-74
2023/12/13 03:12:00;;;;;;;6.75;2.45;;;8.30;99.90;;;;;;5012698;28;20096;-74
2023/12/13 03:14:25;;;;;;;8.32;2.35;;;8.20;99.90;;;;;;4997512;28;20027;-74
2023/12/13 03:16:54;;;;;;;9.77;3.03;;;8.20;99.90;;;;;;4997766;28;20030;-74
2023/12/13 03:19:19;;;;;;;6.80;2.95;;;8.30;99.90;;;;;;4996199;28;20029;-74
2023/12/13 03:21:45;;;;;;;5.63;2.40;;;8.20;99.90;;;;;;5012649;28;20027;-74
2023/12/13 03:24:10;;;;;;;9.27;3.30;;;8.20;99.90;;;;;;4997356;28;20394;-74
2023/12/13 03:26:36;;;;;;;7.25;2.70;;;8.30;99.90;;;;;;4997347;28;20448;-74
2023/12/13 03:29:02;;;;;;;7.63;2.70;;;8.20;99.90;;;;;;4995908;28;20031;-74
2023/12/13 03:31:28;;;;;;;8.38;4.15;;;8.20;99.90;;;;;;4996313;28;20089;-74
2023/12/13 03:33:55;;;;;;;8.45;2.65;;;8.30;99.90;;;;;;4996073;28;20018;-74
2023/12/13 03:36:21;;;;;;;9.40;3.28;;;8.30;99.90;;;;;;5012248;28;20023;-74
2023/12/13 03:38:46;;;;;;;11.90;3.97;;;8.30;99.90;;;;;;4997251;28;20478;-74
2023/12/13 03:41:12;;;;;;;8.85;3.45;;;8.30;99.90;;;;;;4995622;28;20023;-74
2023/12/13 03:43:39;;;;;;;9.90;3.28;;;8.30;99.90;;;;;;4997276;28;20509;-73
2023/12/13 03:46:05;;;;;;;10.50;4.03;;;8.30;99.90;;;;;;4997057;28;20050;-74
2023/12/13 03:48:31;;;;;;;10.63;3.95;;;8.30;99.90;;;;;;4997705;28;20050;-74
2023/12/13 03:50:56;;;;;;;7.78;3.70;;;8.30;99.90;;;;;;4997087;28;20023;-74
2023/12/13 03:53:22;;;;;;;10.40;4.05;;;8.40;99.90;;;;;;4996878;28;20026;-74
2023/12/13 03:55:48;;;;;;;12.07;4.72;;;8.30;99.90;;;;;;4997218;28;20029;-74
2023/12/13 03:58:13;;;;;;;10.38;3.95;;;8.40;99.90;;;;;;5011881;28;20113;-74
2023/12/13 04:00:41;;;;;;;9.82;3.55;;;8.40;99.90;;;;;;4995501;28;20014;-75
2023/12/13 04:03:07;;;;;;;14.27;5.25;;;8.40;99.90;;;;;;4996469;28;20548;-74
2023/12/13 04:05:32;;;;;;;7.82;3.05;;;8.40;99.90;;;;;;4996571;28;20026;-74
2023/12/13 04:07:58;;;;;;;14.20;4.47;;;8.40;99.90;;;;;;4996750;28;20027;-74
2023/12/13 04:10:23;;;;;;;11.82;4.60;;;8.40;99.90;;;;;;4996982;28;20517;-74
2023/12/13 04:12:49;;;;;;;11.30;4.10;;;8.40;99.90;;;;;;4997229;28;20038;-74
2023/12/13 04:15:14;;;;;;;10.55;4.53;;;8.40;99.90;;;;;;4996762;28;20033;-74
2023/12/13 04:17:40;;;;;;;8.15;4.05;;;8.40;99.90;;;;;;4996503;28;20046;-74
2023/12/13 04:20:06;;;;;;;13.02;5.25;;;8.30;99.90;;;;;;4996478;28;20049;-74
2023/12/13 04:22:32;;;;;;;10.25;4.15;;;8.30;99.90;;;;;;4996495;28;20030;-74
2023/12/13 04:24:57;;;;;;;11.35;4.22;;;8.30;99.90;;;;;;4996642;28;20597;-74
2023/12/13 04:27:23;;;;;;;10.05;4.05;;;8.30;99.90;;;;;;4996624;28;20069;-74
2023/12/13 04:29:48;;;;;;;10.55;4.53;;;8.30;99.90;;;;;;5011316;28;20045;-74
2023/12/13 04:32:16;;;;;;;10.45;4.20;;;8.30;99.90;;;;;;4994578;28;20388;-74
2023/12/13 04:34:42;;;;;;;13.10;4.35;;;8.30;99.90;;;;;;4996054;28;20040;-74
2023/12/13 04:37:08;;;;;;;13.32;4.68;;;8.20;99.90;;;;;;5011362;28;20452;-74
2023/12/13 04:39:33;;;;;;;9.18;4.30;;;8.20;99.90;;;;;;4994333;28;20026;-74
2023/12/13 04:41:59;;;;;;;15.45;4.50;;;8.30;99.90;;;;;;4996128;28;20029;-74
2023/12/13 04:44:27;;;;;;;10.27;4.43;;;8.30;99.90;;;;;;4996087;28;20061;-74
2023/12/13 04:46:54;;;;;;;10.90;4.65;;;8.30;99.90;;;;;;4996037;28;20102;-74
2023/12/13 04:49:20;;;;;;;8.68;3.90;;;8.30;99.90;;;;;;4996042;28;20030;-74
2023/12/13 04:51:45;;;;;;;10.98;4.13;;;8.30;99.90;;;;;;4995162;28;20037;-74
2023/12/13 04:54:11;;;;;;;11.45;4.40;;;8.30;99.90;;;;;;4995958;28;20109;-74
2023/12/13 04:56:36;;;;;;;9.73;4.43;;;8.30;99.90;;;;;;4995952;28;20450;-73
2023/12/13 04:59:02;;;;;;;8.85;4.45;;;8.20;99.90;;;;;;4994753;28;20076;-74
2023/12/13 05:01:27;;;;;;;10.07;3.92;;;8.20;99.90;;;;;;5011089;28;20018;-74
2023/12/13 05:03:53;;;;;;;11.95;3.95;;;8.30;99.90;;;;;;4995876;28;20104;-74
2023/12/13 05:06:19;;;;;;;12.30;4.65;;;8.20;99.90;;;;;;4995574;28;20018;-74
2023/12/13 05:08:46;;;;;;;13.02;4.95;;;8.20;99.90;;;;;;4995874;28;20007;-74
2023/12/13 05:11:11;;;;;;;13.70;4.60;;;8.20;99.90;;;;;;4994545;28;20429;-74
2023/12/13 05:13:37;;;;;;;10.95;4.38;;;8.20;99.90;;;;;;4995289;28;20097;-74
2023/12/13 05:16:03;;;;;;;12.65;4.88;;;8.20;99.90;;;;;;4995362;28;20441;-74
2023/12/13 05:18:29;;;;;;;16.75;4.35;;;8.20;99.90;;;;;;4995649;28;20027;-74
2023/12/13 05:20:55;;;;;;;11.15;4.55;;;8.20;99.90;;;;;;4995257;28;20073;-74
2023/12/13 05:23:20;;;;;;;9.13;4.15;;;8.20;99.90;;;;;;5010504;28;20023;-74
2023/12/13 05:25:46;;;;;;;12.05;5.40;;;8.20;99.90;;;;;;4995591;28;20062;-74
2023/12/13 05:28:12;;;;;;;13.90;4.90;;;8.20;99.90;;;;;;4995245;28;20490;-74
2023/12/13 05:30:37;;;;;;;13.30;4.45;;;8.20;99.90;;;;;;4995422;28;20057;-74
2023/12/13 05:33:03;;;;;;;9.85;4.00;;;8.20;99.90;;;;;;4995302;28;20022;-74
2023/12/13 05:35:29;;;;;;;11.43;4.10;;;8.20;99.90;;;;;;4995096;28;20023;-74
2023/12/13 05:37:55;;;;;;;12.73;5.15;;;8.20;99.90;;;;;;4994163;28;20029;-74
2023/12/13 05:40:20;;;;;;;22.52;5.18;;;8.70;99.90;;;;;;4995027;28;20105;-74
2023/12/13 05:42:46;;;;;;;10.48;3.78;;;8.20;99.90;;;;;;4995826;28;20026;-74
2023/12/13 05:45:11;;;;;;;11.18;4.40;;;8.20;99.90;;;;;;4993806;28;20034;-74
2023/12/13 05:47:37;;;;;;;18.27;4.53;;;8.20;99.90;;;;;;4994508;28;20509;-74
2023/12/13 05:50:04;;;;;;;15.90;4.82;;;8.20;99.90;;;;;;4995234;28;20042;-74
2023/12/13 05:52:32;;;;;;;14.30;4.10;;;8.20;99.90;;;;;;4994919;28;20054;-75
2023/12/13 05:54:58;;;;;;;12.80;4.57;;;8.20;99.90;;;;;;4993624;28;20026;-76
2023/12/13 05:57:24;;;;;;;16.63;5.13;;;8.20;99.90;;;;;;4994808;28;20018;-76
2023/12/13 05:59:49;;;;;;;14.35;4.53;;;8.20;99.90;;;;;;4993372;28;20019;-76
2023/12/13 06:02:15;;;;;;;10.05;4.60;;;8.20;99.90;;;;;;4995132;28;20084;-76
2023/12/13 06:04:42;;;;;;;17.83;5.28;;;8.20;99.90;;;;;;5009484;28;20117;-76
2023/12/13 06:07:09;;;;;;;17.25;4.70;;;8.40;99.90;;;;;;4994780;28;20022;-76
2023/12/13 06:09:34;;;;;;;9.73;4.43;;;8.20;99.90;;;;;;4995650;28;20034;-76
2023/12/13 06:12:00;;;;;;;17.52;5.13;;;8.20;99.90;;;;;;4994703;28;20081;-76
2023/12/13 06:14:25;;;;;;;13.48;4.63;;;8.20;99.90;;;;;;4993414;28;20015;-76
2023/12/13 06:16:51;;;;;;;15.63;5.60;;;8.20;99.90;;;;;;4994984;28;20022;-76
2023/12/13 06:19:16;;;;;;;15.25;4.78;;;8.20;99.90;;;;;;4992929;28;20018;-75
2023/12/13 06:21:42;;;;;;;12.45;4.10;;;8.20;99.90;;;;;;5009753;28;20065;-76
2023/12/13 06:24:08;;;;;;;13.27;4.32;;;8.20;99.90;;;;;;4993682;28;20026;-76
2023/12/13 06:26:34;;;;;;;14.80;4.97;;;8.20;99.90;;;;;;4994882;28;20030;-76
2023/12/13 06:29:00;;;;;;;12.95;4.22;;;8.20;99.90;;;;;;5009837;28;20474;-75
2023/12/13 06:31:26;;;;;;;13.35;4.47;;;8.20;99.90;;;;;;4993313;28;20022;-76
2023/12/13 06:33:52;;;;;;;12.68;4.55;;;8.20;99.90;;;;;;4994630;28;20647;-76
2023/12/13 06:36:17;;;;;;;13.23;4.50;;;8.20;99.90;;;;;;4993430;28;20014;-74
2023/12/13 06:38:43;;;;;;;13.10;3.78;;;8.20;99.90;;;;;;4995563;28;20466;-77
2023/12/13 06:41:08;;;;;;;13.30;4.68;;;8.20;99.90;;;;;;4994631;28;20022;-77
2023/12/13 06:43:34;;;;;;;13.38;4.63;;;8.20;99.90;;;;;;4993340;28;20379;-77
2023/12/13 06:45:59;;;;;;;14.98;5.35;;;8.30;99.90;;;;;;4994170;28;20022;-77
2023/12/13 06:48:25;;;;;;;12.02;3.80;;;8.30;99.90;;;;;;4994583;28;20041;-77
2023/12/13 06:50:51;;;;;;;14.13;3.97;;;8.30;99.90;;;;;;4995053;28;20469;-77
2023/12/13 06:53:16;;;;;;;11.57;4.40;;;8.30;99.90;;;;;;4995275;28;20062;-77
2023/12/13 06:55:42;;;;;;;13.48;4.97;;;8.30;99.90;;;;;;4994588;28;20065;-77
2023/12/13 06:58:07;;;;;;;12.77;4.63;;;8.40;99.90;;;;;;4993495;28;20066;-77
2023/12/13 07:00:34;;;;;;;17.02;4.30;;;8.30;99.90;;;;;;5009816;28;20474;-77
2023/12/13 07:03:00;;;;;;;11.55;3.90;;;8.30;99.90;;;;;;4994930;28;20105;-78
2023/12/13 07:05:25;;;;;;;17.73;5.07;;;8.30;99.90;;;;;;4993455;28;20160;-77
2023/12/13 07:07:51;;;;;;;17.70;3.67;;;8.40;99.90;;;;;;4993581;28;20129;-78
2023/12/13 07:10:21;;;;;;;12.27;4.25;;;8.30;99.90;;;;;;4994711;28;20076;-78
2023/12/13 07:12:47;;;;;;;9.88;3.72;;;8.30;99.90;;;;;;4994440;28;20093;-78
2023/12/13 07:15:13;;;;;;;14.90;3.88;;;8.30;99.90;;;;;;4995318;28;20022;-77
2023/12/13 07:17:39;;;;;;;13.55;4.50;;;8.40;99.90;;;;;;4997973;28;20019;-77
2023/12/13 07:20:06;;;;;;;16.88;4.40;;;8.30;99.90;;;;;;4998244;28;20045;-77
2023/12/13 07:22:32;;;;;;;11.02;4.47;;;;;;;;;;4997473;28;20088;-77
2023/12/13 07:24:58;;;;;;;12.45;4.40;;;8.40;99.90;;;;;;4996566;28;20434;-77
2023/12/13 07:27:23;;;;;;;12.50;3.63;;;8.40;99.90;;;;;;4997666;28;20106;-77
2023/12/13 07:29:49;;;;;;;22.92;4.70;;;8.40;99.90;;;;;;4997894;28;20456;-77
2023/12/13 07:32:14;;;;;;;13.30;3.72;;;8.40;99.90;;;;;;4996679;28;20037;-77
2023/12/13 07:34:43;;;;;;;17.17;4.25;;;8.40;99.90;;;;;;4997746;28;20023;-77
2023/12/13 07:37:08;;;;;;;13.73;3.78;;;8.40;99.90;;;;;;4996483;28;20397;-77
2023/12/13 07:39:36;;;;;;;12.05;4.65;;;8.40;99.90;;;;;;4996550;28;20021;-77
2023/12/13 07:42:05;;;;;;;11.50;4.40;;;8.40;99.90;;;;;;4998099;28;20030;-77
2023/12/13 07:44:32;;;;;;;13.18;3.22;;;8.40;99.90;;;;;;4997625;28;20479;-77
2023/12/13 07:46:59;;;;;;;16.13;4.95;;;8.40;99.90;;;;;;4996578;28;20023;-77
2023/12/13 07:49:25;;;;;;;11.25;4.28;;;8.40;99.90;;;;;;4997339;28;20026;-77
2023/12/13 07:51:51;;;;;;;12.00;4.40;;;8.40;99.90;;;;;;4997099;28;20117;-77
2023/12/13 07:54:18;;;;;;;16.30;4.60;;;8.40;99.90;;;;;;4997424;28;20069;-77
2023/12/13 07:56:46;;;;;;;13.88;4.60;;;8.40;99.90;;;;;;4995997;28;20018;-77
2023/12/13 07:59:12;;;;;;;18.65;4.78;;;8.40;99.90;;;;;;4995340;28;20026;-77
2023/12/13 08:01:38;;;;;;;15.32;4.47;;;8.90;99.90;;;;;;4997038;28;20494;-77
2023/12/13 08:04:03;;;;;;;13.65;4.05;;;8.40;99.90;;;;;;4995940;28;20384;-77
2023/12/13 08:06:29;;;;;;;19.90;5.15;;;8.50;99.90;;;;;;4997260;28;20024;-77
2023/12/13 08:08:55;;;;;;;23.10;5.57;;;8.50;99.90;;;;;;4997388;28;20061;-77
2023/12/13 08:11:23;;;;;;;14.07;3.78;;;8.40;99.90;;;;;;4995993;28;20022;-77
2023/12/13 08:13:48;;;;;;;13.05;4.75;;;9.00;99.90;;;;;;4997572;28;20038;-77
2023/12/13 08:16:14;;;;;;;14.00;4.22;;;8.50;99.90;;;;;;5012213;28;20026;-77
2023/12/13 08:18:40;;;;;;;16.33;4.78;;;8.50;99.90;;;;;;4997019;28;20018;-77
2023/12/13 08:21:06;;;;;;;16.35;4.97;;;8.50;99.90;;;;;;4995742;28;20078;-77
2023/12/13 08:23:32;;;;;;;17.30;4.53;;;8.60;99.90;;;;;;4997228;28;20033;-76
2023/12/13 08:25:58;;;;;;;12.85;4.18;;;10.40;99.90;;;;;;4995803;28;20022;-77
2023/12/13 08:28:24;;;;;;;15.65;4.28;;;8.60;99.90;;;;;;4994728;28;20022;-77
2023/12/13 08:30:49;;;;;;;13.45;4.43;;;8.50;99.90;;;;;;4995391;28;20042;-77
2023/12/13 08:33:15;;;;;;;15.07;4.53;;;8.60;99.90;;;;;;4996171;28;20386;-77
2023/12/13 08:35:40;;;;;;;16.40;4.35;;;8.60;99.90;;;;;;4995897;28;20383;-77
2023/12/13 08:38:06;;;;;;;18.27;4.57;;;8.60;99.90;;;;;;4995748;28;20482;-77
2023/12/13 08:40:32;;;;;;;14.52;4.40;;;8.60;99.90;;;;;;4996804;28;20027;-77
2023/12/13 08:42:57;;;;;;;20.77;5.18;;;8.60;99.90;;;;;;4997060;28;20061;-77
2023/12/13 08:45:23;;;;;;;17.27;4.82;;;8.60;99.90;;;;;;4994931;28;20049;-77
2023/12/13 08:47:48;;;;;;;23.50;5.50;;;8.70;99.90;;;;;;4996314;28;20030;-77
2023/12/13 08:50:14;;;;;;;14.75;4.53;;;8.80;99.90;;;;;;4996445;28;20371;-77
2023/12/13 08:52:40;;;;;;;15.43;4.75;;;8.70;99.90;;;;;;4995030;28;20031;-77
2023/12/13 08:55:09;;;;;;;19.38;5.30;;;8.70;99.90;;;;;;4996636;28;20564;-77
2023/12/13 08:57:36;;;;;;;14.73;5.63;;;8.70;99.90;;;;;;4996298;28;20026;-76
2023/12/13 09:00:02;;;;;;;15.70;4.75;;;8.70;99.90;;;;;;4996412;28;20026;-76
2023/12/13 09:02:27;;;;;;;20.33;6.93;;;8.70;99.90;;;;;;4996119;28;20029;-76
2023/12/13 09:04:53;;;;;;;15.05;4.50;;;8.70;99.90;;;;;;4995852;28;20037;-76
2023/12/13 09:07:18;;;;;;;19.60;4.65;;;8.80;99.90;;;;;;5010595;28;20050;-76
2023/12/13 09:09:44;;;;;;;18.25;4.82;;;8.80;99.90;;;;;;4994613;28;20061;-76
2023/12/13 09:12:12;;;;;;;13.70;4.05;;;9.60;99.90;;;;;;4994986;28;20023;-76
2023/12/13 09:14:38;;;;;;;17.10;4.25;;;8.80;99.90;;;;;;4994945;28;20021;-76
2023/12/13 09:17:04;;;;;;;15.85;4.40;;;8.70;99.90;;;;;;4996037;28;20027;-76
2023/12/13 09:19:30;;;;;;;17.70;5.20;;;9.20;99.90;;;;;;5010812;28;20062;-76
2023/12/13 09:21:55;;;;;;;15.02;4.80;;;8.80;99.90;;;;;;4996004;28;20037;-76
2023/12/13 09:24:21;;;;;;;12.68;4.18;;;8.80;99.90;;;;;;4994593;28;20022;-76
2023/12/13 09:26:50;;;;;;;13.90;3.88;;;8.80;99.90;;;;;;4995992;28;20033;-76
2023/12/13 09:29:16;;;;;;;21.52;5.22;;;8.90;99.90;;;;;;4995558;28;20081;-76
2023/12/13 09:31:41;;;;;;;14.18;4.32;;;9.00;99.90;;;;;;4995709;28;20034;-76
2023/12/13 09:34:07;;;;;;;11.30;4.00;;;9.00;99.90;;;;;;4996285;28;20031;-76
2023/12/13 09:36:33;;;;;;;14.98;4.55;;;9.10;99.90;;;;;;4994444;28;20430;-76
2023/12/13 09:38:59;;;;;;;13.90;5.07;;;9.20;99.90;;;;;;4995018;28;20026;-76
2023/12/13 09:41:27;;;;;;;12.30;4.78;;;9.20;99.90;;;;;;4995996;28;20027;-76
2023/12/13 09:43:54;;;;;;;17.65;4.70;;;9.20;99.90;;;;;;4994726;28;20023;-76
2023/12/13 09:46:21;;;;;;;12.10;4.47;;;9.20;99.90;;;;;;5010609;28;20084;-76
2023/12/13 09:48:47;;;;;;;14.73;4.85;;;9.30;99.90;;;;;;4995993;28;20014;-76
2023/12/13 09:51:13;;;;;;;11.45;4.32;;;9.30;99.90;;;;;;4995168;28;20038;-76
2023/12/13 09:53:40;;;;;;;14.98;4.88;;;9.30;99.90;;;;;;4995237;28;20026;-76
2023/12/13 09:56:08;;;;;;;18.42;6.25;;;9.40;99.90;;;;;;4995009;28;20110;-76
2023/12/13 09:58:37;;;;;;;13.00;4.72;;;9.40;99.90;;;;;;4995460;28;20033;-76
2023/12/13 10:01:14;;;;;;;15.15;5.93;;;10.00;99.90;;;;;;4995012;28;20022;-76
2023/12/13 10:03:40;;;;;;;16.60;5.40;;;9.60;99.90;;;;;;4995129;28;20520;-76
2023/12/13 10:06:10;;;;;;;13.13;5.72;;;9.70;99.90;;;;;;4994831;28;20046;-76
2023/12/13 10:08:36;;;;;;;13.30;4.30;;;9.50;99.90;;;;;;4995446;28;20390;-76
2023/12/13 10:11:06;;;;;;;11.27;4.75;;;9.80;99.90;;;;;;4994851;28;20033;-76
2023/12/13 10:13:34;;;;;;;16.52;5.05;;;9.90;99.90;;;;;;4995160;28;20040;-76
2023/12/13 10:16:13;;;;;;;15.63;6.15;;;9.90;99.90;;;;;;4995051;28;20021;-76
2023/12/13 10:18:42;;;;;;;13.98;4.88;;;9.90;99.90;;;;;;4995095;28;20026;-76
2023/12/13 10:21:08;;;;;;;;;;;9.90;99.90;;;;;;4994092;28;20019;-76
2023/12/13 10:23:35;;;;;;;14.52;5.40;;;9.80;99.90;;;;;;4994002;28;19906;-76
2023/12/13 10:26:01;;;;;;;17.85;6.03;;;9.90;99.90;;;;;;4993964;28;20027;-76
2023/12/13 10:28:27;;;;;;;14.82;5.80;;;9.90;99.90;;;;;;4994921;28;20029;-76
2023/12/13 10:30:52;;;;;;;19.75;6.82;;;9.90;99.90;;;;;;4993102;28;20035;-76
2023/12/13 10:33:19;;;;;;;20.48;6.13;;;10.00;99.90;;;;;;4994801;28;20493;-76
2023/12/13 10:35:46;;;;;;;19.35;6.47;;;10.00;99.90;;;;;;4993740;28;20073;-76
2023/12/13 10:38:14;;;;;;;15.07;5.75;;;10.10;99.90;;;;;;4994821;28;20019;-76
2023/12/13 10:40:41;;;;;;;15.25;5.20;;;10.10;99.90;;;;;;4994500;28;20032;-76
2023/12/13 10:43:10;;;;;;;13.63;5.75;;;10.20;99.90;;;;;;4994554;28;20022;-76
2023/12/13 10:45:39;;;;;;;25.92;6.70;;;10.20;99.90;;;;;;4993355;28;20371;-76
2023/12/13 10:48:08;;;;;;;13.63;5.72;;;11.50;99.90;;;;;;4994471;28;20061;-76
2023/12/13 10:50:34;;;;;;;;;;;10.20;99.90;;;;;;4994807;28;20034;-76
2023/12/13 10:53:01;;;;;;;18.75;5.53;;;10.20;99.90;;;;;;4997932;28;19920;-76
2023/12/13 10:55:27;;;;;;;12.85;5.15;;;10.20;99.90;;;;;;4997980;28;20034;-76
2023/12/13 10:57:54;;;;;;;17.63;5.20;;;10.20;99.90;;;;;;4998292;28;20050;-76
2023/12/13 11:00:20;;;;;;;19.83;4.97;;;10.20;99.90;;;;;;4996960;28;20066;-76
2023/12/13 11:02:55;;;;;;;15.43;6.20;;;10.20;99.90;;;;;;4996668;28;20022;-76
2023/12/13 11:05:21;;;;;;;15.13;5.38;;;10.20;99.90;;;;;;4996577;28;20116;-76
2023/12/13 11:07:47;;;;;;;13.70;5.72;;;10.30;99.90;;;;;;4997823;28;20026;-76
2023/12/13 11:10:14;;;;;;;13.18;4.78;;;10.30;99.90;;;;;;4998105;28;20080;-76
2023/12/13 11:12:52;;;;;;;13.30;4.80;;;10.30;99.90;;;;;;4997770;28;20033;-76
2023/12/13 11:15:19;;;;;;;16.73;5.22;;;10.30;99.90;;;;;;4997307;28;20021;-75
2023/12/13 11:17:48;;;;;;;16.63;5.15;;;10.40;99.90;;;;;;4996254;28;20030;-76
2023/12/13 11:20:14;;;;;;;18.98;5.90;;;10.40;99.90;;;;;;4997810;28;20371;-76
2023/12/13 11:22:45;;;;;;;18.85;5.40;;;10.40;99.90;;;;;;4997691;28;20030;-76
2023/12/13 11:25:11;;;;;;;19.83;5.97;;;10.50;99.90;;;;;;4997483;28;20030;-76
2023/12/13 11:27:54;;;;;;;18.45;5.28;;;10.50;99.90;;;;;;4997677;28;20104;-76
2023/12/13 11:30:21;;;;;;;21.02;6.18;;;10.40;99.90;;;;;;4997441;28;20156;-77
2023/12/13 11:32:47;;;;;;;15.93;5.22;;;10.40;99.90;;;;;;4997406;28;20070;-76
2023/12/13 11:35:15;;;;;;;17.02;5.18;;;10.40;99.90;;;;;;4996363;28;20026;-77
2023/12/13 11:37:41;;;;;;;16.10;4.82;;;10.30;99.90;;;;;;4997425;28;20029;-77
2023/12/13 11:40:07;;;;;;;16.42;4.38;;;10.20;99.90;;;;;;4997205;28;20073;-76
2023/12/13 11:42:34;;;;;;;17.25;5.53;;;10.30;99.90;;;;;;4997806;28;20113;-76
2023/12/13 11:45:00;;;;;;;15.73;5.25;;;10.40;99.90;;;;;;4997113;28;20394;-76
2023/12/13 11:47:28;;;;;;;12.23;4.75;;;10.30;99.90;;;;;;4997362;28;20025;-77
2023/12/13 11:49:53;;;;;;;16.00;5.83;;;10.40;99.90;;;;;;4996947;28;20508;-77
2023/12/13 11:52:19;;;;;;;13.77;5.85;;;10.50;99.90;;;;;;4996856;28;20034;-76
2023/12/13 11:54:45;;;;;;;18.85;5.15;;;10.60;99.90;;;;;;5012130;28;20018;-76
2023/12/13 11:57:15;;;;;;;13.30;5.97;;;10.60;99.90;;;;;;4996581;28;20022;-76
2023/12/13 11:59:42;;;;;;;17.20;5.63;;;10.70;99.90;;;;;;4996612;28;20033;-77
2023/12/13 12:02:09;;;;;;;14.55;4.85;;;10.80;99.90;;;;;;4995384;28;20035;-76
2023/12/13 12:04:35;;;;;;;13.20;4.93;;;10.90;99.90;;;;;;4997078;28;20449;-76
2023/12/13 12:07:01;;;;;;;15.10;4.63;;;10.90;99.90;;;;;;4995786;28;20493;-76
2023/12/13 12:09:27;;;;;;;13.55;4.65;;;10.90;99.90;;;;;;4996547;28;20034;-77
2023/12/13 12:11:57;;;;;;;14.25;5.00;;;11.00;99.90;;;;;;4996352;28;20050;-76
2023/12/13 12:14:27;;;;;;;15.80;5.28;;;11.70;99.90;;;;;;4995192;28;20029;-76
2023/12/13 12:16:52;;;;;;;15.30;4.50;;;11.10;99.90;;;;;;4996178;28;20122;-76
2023/12/13 12:19:18;;;;;;;11.55;3.72;;;11.20;99.90;;;;;;4994895;28;20022;-77
2023/12/13 12:21:44;;;;;;;15.20;5.00;;;11.20;99.90;;;;;;4996152;28;20022;-77
2023/12/13 12:24:10;;;;;;;14.18;4.70;;;11.20;99.90;;;;;;4995865;28;20026;-76
2023/12/13 12:26:36;;;;;;;12.60;3.72;;;11.20;99.90;;;;;;5011273;28;20022;-76
2023/12/13 12:29:02;;;;;;;14.27;3.70;;;11.20;99.90;;;;;;4994643;28;20022;-76
2023/12/13 12:31:27;;;;;;;14.90;3.88;;;11.20;99.90;;;;;;4995750;28;20022;-76
2023/12/13 12:33:54;;;;;;;10.68;4.20;;;11.20;99.90;;;;;;4995326;28;20026;-76
2023/12/13 12:36:20;;;;;;;14.75;5.03;;;11.20;99.90;;;;;;4995550;28;20031;-77
2023/12/13 12:38:48;;;;;;;14.32;4.43;;;11.10;99.90;;;;;;4994249;28;20509;-77
2023/12/13 12:41:15;;;;;;;17.25;5.43;;;11.20;99.90;;;;;;4995981;28;20378;-77
2023/12/13 12:43:41;;;;;;;12.02;4.22;;;11.20;99.90;;;;;;4994032;28;20549;-77